createdAt,value
2018-09-30T00:00:19.831Z,98403.05
2018-09-30T00:02:48.172Z,98395.20
2018-09-30T00:05:16.480Z,98396.98
2018-09-30T00:07:44.796Z,98396.55
2018-09-30T00:10:13.098Z,98394.36
2018-09-30T00:12:41.404Z,98396.02
2018-09-30T00:15:09.720Z,98404.60
2018-09-30T00:17:38.017Z,98408.09
2018-09-30T00:20:06.367Z,98411.73
2018-09-30T00:22:34.675Z,98408.91
2018-09-30T00:25:08.631Z,98408.44
2018-09-30T00:27:36.936Z,98405.17
2018-09-30T00:30:05.248Z,98410.47
2018-09-30T00:32:33.583Z,98400.95
2018-09-30T00:35:01.929Z,98397.05
2018-09-30T00:37:30.215Z,98387.10
2018-09-30T00:39:58.531Z,98389.16
2018-09-30T00:42:26.824Z,98388.22
2018-09-30T00:44:55.143Z,98387.91
2018-09-30T00:47:23.443Z,98382.30
2018-09-30T00:49:51.747Z,98379.09
2018-09-30T00:52:20.067Z,98379.33
2018-09-30T00:54:48.367Z,98372.65
2018-09-30T00:57:16.686Z,98373.67
2018-09-30T00:59:44.994Z,98374.21
2018-09-30T01:02:13.312Z,98369.43
2018-09-30T01:04:41.615Z,98368.53
2018-09-30T01:07:09.920Z,98371.58
2018-09-30T01:09:38.247Z,98369.66
2018-09-30T01:12:06.547Z,98375.76
2018-09-30T01:14:34.877Z,98371.70
2018-09-30T01:17:03.175Z,98368.39
2018-09-30T01:19:31.483Z,98362.22
2018-09-30T01:21:59.799Z,98361.39
2018-09-30T01:24:28.099Z,98362.26
2018-09-30T01:26:56.415Z,98363.20
2018-09-30T01:29:24.738Z,98358.31
2018-09-30T01:31:53.056Z,98357.13
2018-09-30T01:34:21.359Z,98351.58
2018-09-30T01:36:49.683Z,98352.95
2018-09-30T01:39:18.003Z,98357.79
2018-09-30T01:41:46.323Z,98349.02
2018-09-30T01:44:14.640Z,98350.87
2018-09-30T01:46:42.951Z,98347.91
2018-09-30T01:49:11.260Z,98355.20
2018-09-30T01:51:39.568Z,98351.48
2018-09-30T01:54:07.875Z,98347.68
2018-09-30T01:56:36.192Z,98345.07
2018-09-30T01:59:04.499Z,98347.39
2018-09-30T02:01:32.815Z,98345.84
2018-09-30T02:04:01.118Z,98342.35
2018-09-30T02:06:29.431Z,98330.78
2018-09-30T02:08:57.737Z,98333.60
2018-09-30T02:11:26.052Z,98326.74
2018-09-30T02:13:54.356Z,98330.78
2018-09-30T02:16:22.664Z,98325.96
2018-09-30T02:18:50.974Z,98317.28
2018-09-30T02:21:19.286Z,98315.55
2018-09-30T02:23:47.588Z,98312.61
2018-09-30T02:26:15.899Z,98310.76
2018-09-30T02:28:44.199Z,98315.12
2018-09-30T02:31:12.605Z,98307.11
2018-09-30T02:33:40.891Z,98302.91
2018-09-30T02:36:09.208Z,98303.16
2018-09-30T02:38:37.823Z,98306.18
2018-09-30T02:41:06.147Z,98307.56
2018-09-30T02:43:34.455Z,98305.43
2018-09-30T02:46:02.771Z,98300.05
2018-09-30T02:48:31.075Z,98300.11
2018-09-30T02:50:59.387Z,98297.36
2018-09-30T02:53:27.699Z,98293.71
2018-09-30T02:55:56.020Z,98285.11
2018-09-30T02:58:24.344Z,98284.81
2018-09-30T03:00:52.644Z,98283.83
2018-09-30T03:03:20.944Z,98281.68
2018-09-30T03:05:49.257Z,98277.73
2018-09-30T03:08:23.091Z,98279.02
2018-09-30T03:10:51.407Z,98275.44
2018-09-30T03:13:19.720Z,98281.39
2018-09-30T03:15:48.031Z,98276.20
2018-09-30T03:18:16.336Z,98274.18
2018-09-30T03:20:44.652Z,98274.30
2018-09-30T03:23:12.959Z,98278.03
2018-09-30T03:25:41.272Z,98277.42
2018-09-30T03:28:09.580Z,98271.59
2018-09-30T03:30:37.900Z,98268.69
2018-09-30T03:33:06.203Z,98269.43
2018-09-30T03:35:34.511Z,98272.03
2018-09-30T03:38:02.812Z,98270.13
2018-09-30T03:40:32.095Z,98271.42
2018-09-30T03:43:00.387Z,98267.61
2018-09-30T03:45:28.704Z,98263.36
2018-09-30T03:47:57.020Z,98261.39
2018-09-30T03:50:25.335Z,98257.66
2018-09-30T03:52:53.635Z,98257.48
2018-09-30T03:55:21.957Z,98256.22
2018-09-30T03:57:50.275Z,98254.91
2018-09-30T04:00:18.578Z,98252.84
2018-09-30T04:02:46.908Z,98253.17
2018-09-30T04:05:15.211Z,98254.14
2018-09-30T04:07:43.523Z,98257.19
2018-09-30T04:10:12.031Z,98254.59
2018-09-30T04:12:40.125Z,98256.50
2018-09-30T04:15:08.448Z,98252.17
2018-09-30T04:17:36.774Z,98250.57
2018-09-30T04:20:05.083Z,98245.09
2018-09-30T04:22:33.392Z,98231.88
2018-09-30T04:25:01.695Z,98228.13
2018-09-30T04:27:30.010Z,98230.03
2018-09-30T04:29:58.316Z,98232.01
2018-09-30T04:32:26.634Z,98227.14
2018-09-30T04:34:54.947Z,98227.78
2018-09-30T04:37:23.249Z,98229.73
2018-09-30T04:39:51.564Z,98223.13
2018-09-30T04:42:19.872Z,98216.27
2018-09-30T04:44:48.183Z,98224.41
2018-09-30T04:47:16.523Z,98215.05
2018-09-30T04:49:44.827Z,98211.34
2018-09-30T04:52:13.139Z,98214.95
2018-09-30T04:54:41.439Z,98213.97
2018-09-30T04:57:09.751Z,98208.69
2018-09-30T04:59:38.058Z,98215.89
2018-09-30T05:02:06.375Z,98219.83
2018-09-30T05:04:34.676Z,98220.23
2018-09-30T05:07:02.987Z,98214.52
2018-09-30T05:09:31.311Z,98212.84
2018-09-30T05:11:59.628Z,98213.22
2018-09-30T05:14:27.935Z,98201.52
2018-09-30T05:16:56.236Z,98192.11
2018-09-30T05:19:24.548Z,98191.86
2018-09-30T05:21:52.866Z,98195.11
2018-09-30T05:24:22.144Z,98200.52
2018-09-30T05:26:50.445Z,98198.10
2018-09-30T05:29:18.766Z,98205.19
2018-09-30T05:31:47.059Z,98199.39
2018-09-30T05:34:15.371Z,98196.19
2018-09-30T05:36:43.674Z,98195.61
2018-09-30T05:39:11.983Z,98184.09
2018-09-30T05:41:40.287Z,98197.03
2018-09-30T05:44:08.628Z,98187.92
2018-09-30T05:46:36.926Z,98185.40
2018-09-30T05:49:05.258Z,98189.05
2018-09-30T05:51:33.539Z,98194.75
2018-09-30T05:54:01.851Z,98193.30
2018-09-30T05:56:30.159Z,98189.26
2018-09-30T05:58:58.463Z,98194.14
2018-09-30T06:01:26.779Z,98189.17
2018-09-30T06:03:55.172Z,98194.20
2018-09-30T06:06:23.411Z,98177.75
2018-09-30T06:08:51.823Z,98182.08
2018-09-30T06:11:20.077Z,98184.80
2018-09-30T06:13:48.386Z,98167.03
2018-09-30T06:16:16.803Z,98189.52
2018-09-30T06:18:50.413Z,98185.06
2018-09-30T06:21:20.040Z,98189.38
2018-09-30T06:23:48.364Z,98187.63
2018-09-30T06:26:16.663Z,98190.45
2018-09-30T06:28:44.966Z,98179.30
2018-09-30T06:31:13.299Z,98169.70
2018-09-30T06:33:41.591Z,98192.81
2018-09-30T06:36:09.908Z,98191.20
2018-09-30T06:38:38.225Z,98192.16
2018-09-30T06:41:06.527Z,98195.62
2018-09-30T06:43:34.831Z,98196.66
2018-09-30T06:46:03.151Z,98197.31
2018-09-30T06:48:31.459Z,98195.94
2018-09-30T06:50:59.835Z,98202.02
2018-09-30T06:53:28.083Z,98192.50
2018-09-30T06:55:56.398Z,98197.86
2018-09-30T06:58:24.706Z,98186.63
2018-09-30T07:00:53.018Z,98190.88
2018-09-30T07:03:21.311Z,98185.95
2018-09-30T07:05:49.622Z,98181.28
2018-09-30T07:08:17.935Z,98178.42
2018-09-30T07:10:46.260Z,98178.31
2018-09-30T07:13:14.547Z,98181.13
2018-09-30T07:15:42.897Z,98175.89
2018-09-30T07:18:11.171Z,98177.83
2018-09-30T07:20:39.479Z,98179.56
2018-09-30T07:23:07.776Z,98170.14
2018-09-30T07:25:36.092Z,98178.12
2018-09-30T07:28:04.375Z,98175.72
2018-09-30T07:30:32.704Z,98174.15
2018-09-30T07:33:01.023Z,98173.91
2018-09-30T07:35:29.312Z,98172.69
2018-09-30T07:37:57.602Z,98171.89
2018-09-30T07:40:25.898Z,98168.19
2018-09-30T07:42:54.191Z,98180.22
2018-09-30T07:45:22.499Z,98172.39
2018-09-30T07:47:50.792Z,98175.55
2018-09-30T07:50:19.103Z,98171.28
2018-09-30T07:52:47.435Z,98174.36
2018-09-30T07:55:15.733Z,98169.03
2018-09-30T07:57:44.032Z,98170.03
2018-09-30T08:00:12.339Z,98168.50
2018-09-30T08:02:40.635Z,98159.13
2018-09-30T08:05:08.956Z,98162.00
2018-09-30T08:07:37.262Z,98166.84
2018-09-30T08:10:05.571Z,98163.26
2018-09-30T08:12:33.862Z,98162.05
2018-09-30T08:15:02.176Z,98152.63
2018-09-30T08:17:30.472Z,98151.64
2018-09-30T08:19:58.780Z,98144.86
2018-09-30T08:22:27.081Z,98149.22
2018-09-30T08:24:55.387Z,98145.26
2018-09-30T08:27:23.733Z,98142.14
2018-09-30T08:29:52.016Z,98144.20
2018-09-30T08:32:20.311Z,98136.39
2018-09-30T08:34:48.615Z,98139.02
2018-09-30T08:37:16.915Z,98138.75
2018-09-30T08:39:45.245Z,98140.80
2018-09-30T08:42:13.516Z,98138.10
2018-09-30T08:44:41.822Z,98138.60
2018-09-30T08:47:10.163Z,98141.17
2018-09-30T08:49:38.447Z,98136.41
2018-09-30T08:52:06.735Z,98137.09
2018-09-30T08:54:35.036Z,98134.56
2018-09-30T08:57:03.348Z,98135.30
2018-09-30T08:59:31.649Z,98140.64
2018-09-30T09:01:59.955Z,98137.47
2018-09-30T09:04:28.274Z,98138.13
2018-09-30T09:06:56.594Z,98141.63
2018-09-30T09:09:24.887Z,98136.45
2018-09-30T09:11:53.208Z,98138.20
2018-09-30T09:14:21.494Z,98131.68
2018-09-30T09:16:49.807Z,98133.48
2018-09-30T09:19:18.121Z,98129.48
2018-09-30T09:21:46.427Z,98124.77
2018-09-30T09:24:14.728Z,98132.95
2018-09-30T09:26:43.082Z,98124.59
2018-09-30T09:29:11.343Z,98123.52
2018-09-30T09:31:39.708Z,98115.86
2018-09-30T09:34:07.956Z,98115.03
2018-09-30T09:36:36.263Z,98113.56
2018-09-30T09:39:04.560Z,98110.17
2018-09-30T09:41:32.878Z,98108.69
2018-09-30T09:44:01.167Z,98108.14
2018-09-30T09:46:29.476Z,98099.02
2018-09-30T09:48:57.776Z,98093.90
2018-09-30T09:51:26.083Z,98092.43
2018-09-30T09:53:54.383Z,98079.92
2018-09-30T09:56:22.691Z,98071.84
2018-09-30T09:58:51.022Z,98064.66
2018-09-30T10:01:19.299Z,98063.02
2018-09-30T10:03:47.595Z,98060.45
2018-09-30T10:06:15.903Z,98058.60
2018-09-30T10:08:44.203Z,98057.04
2018-09-30T10:11:12.519Z,98054.34
2018-09-30T10:13:51.626Z,98055.76
2018-09-30T10:16:19.938Z,98048.33
2018-09-30T10:18:48.239Z,98048.18
2018-09-30T10:21:16.562Z,98052.72
2018-09-30T10:23:44.889Z,98051.98
2018-09-30T10:26:13.191Z,98045.67
2018-09-30T10:28:41.787Z,98046.32
2018-09-30T10:31:10.088Z,98045.48
2018-09-30T10:33:38.436Z,98049.77
2018-09-30T10:36:06.694Z,98040.55
2018-09-30T10:38:35.103Z,98034.53
2018-09-30T10:41:03.420Z,98037.13
2018-09-30T10:43:31.723Z,98029.27
2018-09-30T10:46:00.028Z,98018.77
2018-09-30T10:48:28.376Z,98012.76
2018-09-30T10:50:56.634Z,98003.66
2018-09-30T10:53:25.384Z,98013.26
2018-09-30T10:55:53.699Z,98011.70
2018-09-30T10:58:21.995Z,98003.28
2018-09-30T11:00:50.285Z,98000.86
2018-09-30T11:03:18.627Z,97997.92
2018-09-30T11:05:46.891Z,97997.45
2018-09-30T11:08:15.203Z,97984.01
2018-09-30T11:10:54.198Z,97983.33
2018-09-30T11:13:24.609Z,97987.58
2018-09-30T11:15:52.894Z,97977.23
2018-09-30T11:18:21.187Z,97975.25
2018-09-30T11:20:49.483Z,97971.16
2018-09-30T11:23:17.804Z,97966.22
2018-09-30T11:25:46.148Z,97944.73
2018-09-30T11:28:14.419Z,97960.89
2018-09-30T11:30:42.722Z,97949.15
2018-09-30T11:33:11.067Z,97957.13
2018-09-30T11:35:39.378Z,97951.86
2018-09-30T11:38:07.679Z,97947.55
2018-09-30T11:40:35.981Z,97954.72
2018-09-30T11:43:09.063Z,97947.23
2018-09-30T11:45:37.415Z,97935.08
2018-09-30T11:48:05.819Z,97941.91
2018-09-30T11:50:34.111Z,97926.15
2018-09-30T11:53:02.423Z,97937.30
2018-09-30T11:55:30.727Z,97928.13
2018-09-30T11:57:59.025Z,97926.73
2018-09-30T12:00:27.343Z,97924.83
2018-09-30T12:02:55.639Z,97917.55
2018-09-30T12:05:23.956Z,97914.97
2018-09-30T12:07:52.254Z,97910.01
2018-09-30T12:10:20.559Z,97901.58
2018-09-30T12:12:48.866Z,97887.63
2018-09-30T12:15:17.167Z,97893.96
2018-09-30T12:17:45.471Z,97891.73
2018-09-30T12:20:13.775Z,97885.93
2018-09-30T12:22:42.075Z,97881.73
2018-09-30T12:25:10.390Z,97881.36
2018-09-30T12:27:38.687Z,97873.47
2018-09-30T12:30:06.983Z,97858.62
2018-09-30T12:32:35.315Z,97845.72
2018-09-30T12:35:03.604Z,97858.92
2018-09-30T12:37:31.907Z,97853.11
2018-09-30T12:40:00.199Z,97852.43
2018-09-30T12:42:28.504Z,97846.84
2018-09-30T12:44:56.807Z,97845.22
2018-09-30T12:47:25.179Z,97845.45
2018-09-30T12:49:53.582Z,97839.88
2018-09-30T12:52:21.839Z,97836.95
2018-09-30T12:54:50.130Z,97832.95
2018-09-30T12:57:18.435Z,97829.73
2018-09-30T12:59:46.731Z,97824.39
2018-09-30T13:02:15.060Z,97819.34
2018-09-30T13:04:43.369Z,97823.28
2018-09-30T13:07:11.664Z,97826.41
2018-09-30T13:09:40.019Z,97827.65
2018-09-30T13:12:08.302Z,97819.99
2018-09-30T13:14:36.612Z,97819.97
2018-09-30T13:17:04.915Z,97817.95
2018-09-30T13:19:33.210Z,97814.73
2018-09-30T13:22:01.515Z,97808.84
2018-09-30T13:24:29.824Z,97809.47
2018-09-30T13:26:59.446Z,97799.38
2018-09-30T13:29:27.751Z,97799.77
2018-09-30T13:31:56.051Z,97800.94
2018-09-30T13:34:24.372Z,97800.70
2018-09-30T13:36:52.671Z,97801.16
2018-09-30T13:39:20.976Z,97793.25
2018-09-30T13:41:49.298Z,97795.73
2018-09-30T13:44:17.604Z,97790.66
2018-09-30T13:46:45.895Z,97786.12
2018-09-30T13:49:14.209Z,97782.58
2018-09-30T13:51:42.507Z,97781.46
2018-09-30T13:54:10.803Z,97776.80
2018-09-30T13:56:39.160Z,97770.94
2018-09-30T13:59:07.444Z,97767.49
2018-09-30T14:01:35.762Z,97766.25
2018-09-30T14:04:04.064Z,97761.55
2018-09-30T14:06:32.406Z,97761.16
2018-09-30T14:09:00.712Z,97755.45
2018-09-30T14:11:29.038Z,97753.47
2018-09-30T14:13:57.351Z,97749.91
2018-09-30T14:16:25.690Z,97742.97
2018-09-30T14:18:53.959Z,97743.63
2018-09-30T14:21:22.258Z,97736.16
2018-09-30T14:23:50.579Z,97738.55
2018-09-30T14:26:18.873Z,97735.53
2018-09-30T14:28:47.192Z,97729.87
2018-09-30T14:31:15.490Z,97728.41
2018-09-30T14:33:43.787Z,97728.99
2018-09-30T14:36:12.096Z,97725.81
2018-09-30T14:38:40.395Z,97725.04
2018-09-30T14:41:08.707Z,97719.39
2018-09-30T14:43:37.014Z,97723.95
2018-09-30T14:46:05.311Z,97726.33
2018-09-30T14:48:33.679Z,97723.34
2018-09-30T14:51:01.921Z,97721.92
2018-09-30T14:53:30.223Z,97723.77
2018-09-30T14:55:58.527Z,97716.27
2018-09-30T14:58:26.823Z,97712.46
2018-09-30T15:00:55.138Z,97718.38
2018-09-30T15:03:23.443Z,97716.94
2018-09-30T15:05:51.751Z,97710.70
2018-09-30T15:08:20.096Z,97710.32
2018-09-30T15:10:48.423Z,97711.94
2018-09-30T15:13:16.735Z,97713.11
2018-09-30T15:15:45.037Z,97705.25
2018-09-30T15:18:13.347Z,97706.74
2018-09-30T15:20:41.663Z,97704.14
2018-09-30T15:23:10.008Z,97702.68
2018-09-30T15:25:38.307Z,97701.22
2018-09-30T15:28:06.611Z,97696.25
2018-09-30T15:30:34.915Z,97693.55
2018-09-30T15:33:03.216Z,97686.44
2018-09-30T15:35:31.524Z,97683.04
2018-09-30T15:37:59.818Z,97681.91
2018-09-30T15:40:28.139Z,97685.91
2018-09-30T15:42:56.604Z,97678.47
2018-09-30T15:45:24.804Z,97683.92
2018-09-30T15:47:53.126Z,97680.56
2018-09-30T15:50:21.419Z,97680.88
2018-09-30T15:52:49.714Z,97680.14
2018-09-30T15:55:18.029Z,97681.34
2018-09-30T15:57:46.329Z,97682.10
2018-09-30T16:00:14.639Z,97685.28
2018-09-30T16:02:42.934Z,97687.59
2018-09-30T16:05:11.223Z,97686.67
2018-09-30T16:07:39.541Z,97691.67
2018-09-30T16:10:07.831Z,97683.99
2018-09-30T16:12:36.131Z,97677.47
2018-09-30T16:15:04.437Z,97686.49
2018-09-30T16:17:32.731Z,97680.22
2018-09-30T16:20:01.043Z,97674.72
2018-09-30T16:22:29.334Z,97673.98
2018-09-30T16:24:57.630Z,97675.09
2018-09-30T16:27:25.936Z,97673.30
2018-09-30T16:29:54.223Z,97649.94
2018-09-30T16:32:22.528Z,97659.83
2018-09-30T16:34:50.823Z,97667.02
2018-09-30T16:37:19.125Z,97667.58
2018-09-30T16:39:47.427Z,97670.19
2018-09-30T16:42:15.727Z,97677.74
2018-09-30T16:44:44.023Z,97669.37
2018-09-30T16:47:12.484Z,97672.11
2018-09-30T16:49:40.786Z,97676.22
2018-09-30T16:52:09.075Z,97673.38
2018-09-30T16:57:12.064Z,97680.02
2018-09-30T16:59:40.355Z,97677.77
2018-09-30T17:02:08.671Z,97673.30
2018-09-30T17:04:36.962Z,97667.67
2018-09-30T17:07:05.283Z,97672.80
2018-09-30T17:09:33.667Z,97676.14
2018-09-30T17:12:01.959Z,97678.20
2018-09-30T17:14:30.258Z,97674.98
2018-09-30T17:16:58.579Z,97679.67
2018-09-30T17:19:26.876Z,97672.83
2018-09-30T17:21:55.183Z,97675.53
2018-09-30T17:24:23.475Z,97675.27
2018-09-30T17:26:51.778Z,97685.55
2018-09-30T17:29:20.088Z,97685.24
2018-09-30T17:31:48.387Z,97686.34
2018-09-30T17:34:16.695Z,97684.20
2018-09-30T17:36:45.016Z,97687.88
2018-09-30T17:39:13.320Z,97682.50
2018-09-30T17:41:41.643Z,97682.01
2018-09-30T17:44:09.963Z,97687.16
2018-09-30T17:46:38.272Z,97672.77
2018-09-30T17:49:06.577Z,97675.83
2018-09-30T17:51:34.878Z,97682.91
2018-09-30T17:54:03.179Z,97684.16
2018-09-30T17:56:31.486Z,97681.16
2018-09-30T17:58:59.787Z,97681.98
2018-09-30T18:01:28.103Z,97675.52
2018-09-30T18:03:56.459Z,97675.52
2018-09-30T18:06:24.730Z,97680.20
2018-09-30T18:08:53.028Z,97686.95
2018-09-30T18:11:21.355Z,97686.20
2018-09-30T18:13:49.703Z,97686.15
2018-09-30T18:16:18.023Z,97689.89
2018-09-30T18:18:46.323Z,97685.82
2018-09-30T18:21:14.647Z,97689.63
2018-09-30T18:23:42.985Z,97687.59
2018-09-30T18:26:11.475Z,97683.44
2018-09-30T18:28:39.787Z,97688.29
2018-09-30T18:31:08.083Z,97690.96
2018-09-30T18:33:36.448Z,97689.53
2018-09-30T18:36:04.758Z,97690.38
2018-09-30T18:38:33.075Z,97687.27
2018-09-30T18:41:01.396Z,97686.59
2018-09-30T18:43:29.421Z,97682.28
2018-09-30T18:45:57.399Z,97686.97
2018-09-30T18:48:25.639Z,97680.03
2018-09-30T18:50:53.675Z,97679.70
2018-09-30T18:53:21.692Z,97678.84
2018-09-30T18:55:49.704Z,97676.08
2018-09-30T18:58:17.750Z,97675.63
2018-09-30T19:00:45.764Z,97671.94
2018-09-30T19:03:13.794Z,97674.14
2018-09-30T19:05:41.778Z,97667.78
2018-09-30T19:08:09.791Z,97667.02
2018-09-30T19:10:37.792Z,97670.14
2018-09-30T19:13:05.815Z,97679.01
2018-09-30T19:15:33.838Z,97676.00
2018-09-30T19:18:01.844Z,97672.41
2018-09-30T19:20:29.860Z,97673.70
2018-09-30T19:22:57.948Z,97670.48
2018-09-30T19:25:25.903Z,97664.52
2018-09-30T19:27:53.900Z,97674.30
2018-09-30T19:30:21.896Z,97639.30
2018-09-30T19:32:49.904Z,97667.22
2018-09-30T19:35:17.903Z,97666.92
2018-09-30T19:37:45.919Z,97662.47
2018-09-30T19:40:13.948Z,97667.11
2018-09-30T19:42:41.994Z,97665.67
2018-09-30T19:45:09.971Z,97661.48
2018-09-30T19:47:37.977Z,97664.28
2018-09-30T19:50:05.984Z,97664.62
2018-09-30T19:52:33.992Z,97660.29
2018-09-30T19:55:02.003Z,97666.41
2018-09-30T19:57:30.012Z,97668.19
2018-09-30T19:59:58.024Z,97666.45
2018-09-30T20:02:26.031Z,97665.07
2018-09-30T20:04:54.036Z,97655.42
2018-09-30T20:07:22.795Z,97653.78
2018-09-30T20:09:50.799Z,97660.81
2018-09-30T20:12:18.831Z,97663.25
2018-09-30T20:14:46.851Z,97660.01
2018-09-30T20:17:14.855Z,97652.28
2018-09-30T20:19:42.867Z,97657.73
2018-09-30T20:22:10.876Z,97655.88
2018-09-30T20:24:38.938Z,97662.91
2018-09-30T20:27:06.939Z,97653.22
2018-09-30T20:29:34.941Z,97658.39
2018-09-30T20:32:02.967Z,97657.14
2018-09-30T20:34:30.985Z,97655.97
2018-09-30T20:36:59.015Z,97658.16
2018-09-30T20:39:27.030Z,97657.70
2018-09-30T20:41:55.031Z,97649.51
2018-09-30T20:44:23.040Z,97652.52
2018-09-30T20:46:51.089Z,97648.92
2018-09-30T20:49:19.105Z,97646.16
2018-09-30T20:51:47.164Z,97642.48
2018-09-30T20:54:15.169Z,97653.06
2018-09-30T20:56:43.183Z,97650.55
2018-09-30T20:59:11.220Z,97648.23
2018-09-30T21:01:39.232Z,97644.07
2018-09-30T21:04:07.241Z,97640.64
2018-09-30T21:06:35.247Z,97636.01
2018-09-30T21:09:03.550Z,97645.57
2018-09-30T21:11:31.858Z,97647.85
2018-09-30T21:14:00.155Z,97642.12
2018-09-30T21:16:28.451Z,97647.52
2018-09-30T21:18:56.762Z,97644.75
2018-09-30T21:21:25.067Z,97657.73
2018-09-30T21:23:53.367Z,97654.14
2018-09-30T21:26:21.674Z,97645.06
2018-09-30T21:28:49.986Z,97642.75
2018-09-30T21:31:18.270Z,97642.75
2018-09-30T21:33:46.579Z,97640.97
2018-09-30T21:36:14.883Z,97634.73
2018-09-30T21:38:43.178Z,97627.84
2018-09-30T21:41:11.484Z,97629.42
2018-09-30T21:43:39.795Z,97628.52
2018-09-30T21:46:08.108Z,97626.20
2018-09-30T21:48:36.413Z,97622.30
2018-09-30T21:51:04.691Z,97617.78
2018-09-30T21:53:32.991Z,97620.33
2018-09-30T21:56:01.287Z,97613.32
2018-09-30T21:58:29.592Z,97606.86
2018-09-30T22:00:57.894Z,97611.47
2018-09-30T22:03:26.196Z,97610.06
2018-09-30T22:05:54.495Z,97610.19
2018-09-30T22:08:22.783Z,97604.76
2018-09-30T22:10:51.079Z,97604.04
2018-09-30T22:13:19.393Z,97607.62
2018-09-30T22:15:47.683Z,97605.23
2018-09-30T22:18:16.003Z,97610.03
2018-09-30T22:20:44.287Z,97612.36
2018-09-30T22:23:12.587Z,97606.61
2018-09-30T22:25:40.888Z,97606.88
2018-09-30T22:28:09.180Z,97600.27
2018-09-30T22:30:37.490Z,97594.03
2018-09-30T22:33:05.791Z,97595.00
2018-09-30T22:35:34.083Z,97591.95
2018-09-30T22:38:02.386Z,97584.83
2018-09-30T22:40:30.683Z,97572.63
2018-09-30T22:42:59.318Z,97568.23
2018-09-30T22:45:27.619Z,97580.53
2018-09-30T22:47:55.919Z,97577.99
2018-09-30T22:50:24.227Z,97582.33
2018-09-30T22:52:52.519Z,97583.08
2018-09-30T22:55:21.770Z,97588.91
2018-09-30T22:57:50.893Z,97586.91
2018-09-30T23:00:19.191Z,97584.42
2018-09-30T23:02:47.482Z,97587.91
2018-09-30T23:05:15.792Z,97589.59
2018-09-30T23:07:44.087Z,97584.30
2018-09-30T23:10:12.379Z,97578.83
2018-09-30T23:12:40.688Z,97571.58
2018-09-30T23:15:08.979Z,97574.89
2018-09-30T23:17:37.271Z,97568.22
2018-09-30T23:20:05.575Z,97572.19
2018-09-30T23:22:33.868Z,97576.70
2018-09-30T23:25:02.171Z,97579.25
2018-09-30T23:27:30.463Z,97579.68
2018-09-30T23:29:58.775Z,97574.34
2018-09-30T23:32:27.063Z,97572.69
2018-09-30T23:34:55.376Z,97580.53
2018-09-30T23:37:23.698Z,97584.55
2018-09-30T23:39:53.003Z,97587.44
2018-09-30T23:42:21.311Z,97599.64
2018-09-30T23:44:49.603Z,97603.62
2018-09-30T23:47:17.945Z,97605.03
2018-09-30T23:49:46.240Z,97603.53
2018-09-30T23:52:14.531Z,97613.19
2018-09-30T23:54:42.892Z,97613.17
2018-09-30T23:57:11.153Z,97609.34
2018-09-30T23:59:39.440Z,97611.06
